Time;durP1;ratioP1;P1;durP2;ratioP2;P2;SDS_P1;SDS_P2;PMS_P1;PMS_P2;Temp;Humidity;BMP_temperature;BMP_pressure;BME280_temperature;BME280_humidity;BME280_pressure;Samples;Min_cycle;Max_cycle;Signal;HPM_P1;HPM_P2
2023/02/27 00:01:12;;;;;;;3.50;2.40;;;;;;;;;;4995331;28;20221;-85
2023/02/27 00:03:37;;;;;;;2.43;2.20;;;;;;;;;;4999585;28;20221;-85
2023/02/27 00:06:03;;;;;;;5.27;3.07;;;;;;;;;;4982302;28;20730;-84
2023/02/27 00:08:31;;;;;;;18.70;9.43;;;;;;;;;;4998988;28;20275;-85
2023/02/27 00:11:02;;;;;;;11.83;6.57;;;;;;;;;;4984544;28;20228;-86
2023/02/27 00:13:27;;;;;;;12.13;6.30;;;;;;;;;;4981631;28;20248;-85
2023/02/27 00:15:55;;;;;;;10.47;6.00;;;;;;;;;;4983543;28;20229;-86
2023/02/27 00:18:25;;;;;;;12.13;6.57;;;;;;;;;;4973725;28;20283;-85
2023/02/27 00:20:50;;;;;;;7.77;5.07;;;;;;;;;;4982244;28;20226;-86
2023/02/27 00:23:18;;;;;;;9.47;6.20;;;;;;;;;;4994712;28;20213;-86
2023/02/27 00:25:46;;;;;;;9.30;5.77;;;;;;;;;;4999622;28;20235;-86
2023/02/27 00:28:11;;;;;;;9.80;5.80;;;;;;;;;;5000829;28;20225;-85
2023/02/27 00:30:39;;;;;;;10.57;4.97;;;;;;;;;;4978307;28;20240;-84
2023/02/27 00:33:05;;;;;;;4.27;3.30;;;;;;;;;;4978462;28;20231;-85
2023/02/27 00:35:32;;;;;;;3.00;2.70;;;;;;;;;;4996782;28;20235;-85
2023/02/27 00:37:57;;;;;;;4.57;2.73;;;;;;;;;;4977881;28;20226;-85
2023/02/27 00:40:26;;;;;;;3.10;2.80;;;;;;;;;;4997020;28;20646;-86
2023/02/27 00:42:52;;;;;;;3.60;2.80;;;;;;;;;;4997462;28;20216;-85
2023/02/27 00:45:19;;;;;;;2.17;1.93;;;;;;;;;;4996077;28;20223;-85
2023/02/27 00:47:47;;;;;;;2.70;2.40;;;;;;;;;;5001267;28;20251;-85
2023/02/27 00:50:18;;;;;;;2.40;2.20;;;;;;;;;;4972089;28;20232;-84
2023/02/27 00:52:45;;;;;;;2.33;2.13;;;;;;;;;;5001693;28;20213;-85
2023/02/27 00:55:11;;;;;;;5.40;2.60;;;;;;;;;;5004153;28;20220;-85
2023/02/27 00:57:38;;;;;;;2.97;2.30;;;;;;;;;;5031363;28;20279;-83
2023/02/27 01:00:05;;;;;;;3.10;2.30;;;;;;;;;;5001951;28;20275;-84
2023/02/27 01:02:31;;;;;;;4.37;2.37;;;;;;;;;;5017150;28;20224;-84
2023/02/27 01:04:57;;;;;;;2.63;1.93;;;;;;;;;;4998417;28;20228;-84
2023/02/27 01:07:24;;;;;;;3.23;1.90;;;;;;;;;;5014858;28;20236;-84
2023/02/27 01:09:52;;;;;;;2.13;1.90;;;;;;;;;;4999060;28;20231;-85
2023/02/27 01:12:18;;;;;;;3.40;1.60;;;;;;;;;;5015744;28;20240;-84
2023/02/27 01:14:46;;;;;;;2.20;2.00;;;;;;;;;;5015695;28;20236;-85
2023/02/27 01:17:11;;;;;;;1.93;1.80;;;;;;;;;;4998189;28;20213;-84
2023/02/27 01:19:37;;;;;;;4.03;1.77;;;;;;;;;;4997637;28;20243;-84
2023/02/27 01:22:04;;;;;;;2.30;1.90;;;;;;;;;;4999042;28;20218;-86
2023/02/27 01:24:29;;;;;;;2.67;2.33;;;;;;;;;;4973011;28;20724;-84
2023/02/27 01:26:55;;;;;;;6.23;3.50;;;;;;;;;;5004049;28;20626;-84
2023/02/27 01:29:20;;;;;;;4.90;3.23;;;;;;;;;;4987551;28;20228;-83
2023/02/27 01:31:48;;;;;;;4.70;3.13;;;;;;;;;;4983115;28;20286;-84
2023/02/27 01:34:14;;;;;;;5.00;3.57;;;;;;;;;;4995814;28;20279;-84
2023/02/27 01:36:39;;;;;;;4.33;3.10;;;;;;;;;;4995839;28;20224;-84
2023/02/27 01:39:07;;;;;;;4.20;3.03;;;;;;;;;;4997140;28;20855;-85
2023/02/27 01:41:33;;;;;;;4.10;3.10;;;;;;;;;;4995014;28;20264;-84
2023/02/27 01:44:05;;;;;;;4.93;3.50;;;;;;;;;;4980308;28;20238;-83
2023/02/27 01:46:38;;;;;;;5.17;3.33;;;;;;;;;;4980718;28;20221;-84
2023/02/27 01:49:23;;;;;;;5.60;3.63;;;;;;;;;;4995760;28;20303;-84
2023/02/27 01:52:04;;;;;;;3.73;3.30;;;;;;;;;;4992735;28;20217;-84
2023/02/27 01:54:32;;;;;;;6.03;3.40;;;;;;;;;;4999565;28;20224;-84
2023/02/27 01:57:05;;;;;;;4.70;3.10;;;;;;;;;;5019013;28;20203;-85
2023/02/27 01:59:36;;;;;;;5.77;3.27;;;;;;;;;;5004707;28;20209;-84
2023/02/27 02:02:07;;;;;;;3.90;3.50;;;;;;;;;;4996723;28;20217;-85
2023/02/27 02:04:35;;;;;;;7.07;4.10;;;;;;;;;;4997332;28;20236;-85
2023/02/27 02:07:11;;;;;;;7.60;3.90;;;;;;;;;;4981474;28;20213;-84
2023/02/27 02:09:44;;;;;;;7.70;3.60;;;;;;;;;;5001443;28;20236;-85
2023/02/27 02:12:14;;;;;;;3.70;3.03;;;;;;;;;;4997527;28;20614;-85
2023/02/27 02:14:42;;;;;;;5.63;3.40;;;;;;;;;;4998152;28;20221;-85
2023/02/27 02:17:14;;;;;;;6.10;3.67;;;;;;;;;;5000114;28;20296;-83
2023/02/27 02:20:01;;;;;;;6.33;3.77;;;;;;;;;;4995662;28;20295;-85
2023/02/27 02:22:48;;;;;;;4.27;3.20;;;;;;;;;;4995495;28;20228;-85
2023/02/27 02:25:35;;;;;;;5.03;3.70;;;;;;;;;;5013095;28;20232;-85
2023/02/27 02:28:09;;;;;;;4.63;3.50;;;;;;;;;;4997965;28;20756;-86
2023/02/27 02:31:03;;;;;;;4.20;3.60;;;;;;;;;;4997392;28;20212;-85
2023/02/27 02:33:47;;;;;;;5.03;3.60;;;;;;;;;;5013014;28;20299;-85
2023/02/27 02:36:50;;;;;;;4.33;3.90;;;;;;;;;;5010388;28;20689;-85
2023/02/27 02:39:24;;;;;;;5.87;4.30;;;;;;;;;;5010333;28;20228;-85
2023/02/27 02:42:26;;;;;;;5.23;3.93;;;;;;;;;;5007038;28;20216;-85
2023/02/27 02:44:57;;;;;;;3.80;3.40;;;;;;;;;;4996019;28;20311;-83
2023/02/27 02:47:50;;;;;;;5.43;3.70;;;;;;;;;;4986556;28;20252;-83
2023/02/27 02:50:41;;;;;;;4.20;3.67;;;;;;;;;;5012881;28;20243;-84
2023/02/27 02:53:21;;;;;;;4.70;3.20;;;;;;;;;;4996809;28;20243;-85
2023/02/27 02:56:23;;;;;;;4.07;3.47;;;;;;;;;;4998128;28;20227;-85
2023/02/27 02:58:59;;;;;;;4.13;3.20;;;;;;;;;;4995754;28;20224;-85
2023/02/27 03:01:49;;;;;;;4.43;3.60;;;;;;;;;;4998982;28;20251;-85
2023/02/27 03:04:37;;;;;;;3.10;2.70;;;;;;;;;;4976231;28;20243;-85
2023/02/27 03:07:12;;;;;;;3.23;2.40;;;;;;;;;;5001020;28;20227;-84
2023/02/27 03:09:50;;;;;;;3.77;3.10;;;;;;;;;;4978989;28;20602;-85
2023/02/27 03:12:18;;;;;;;3.47;2.73;;;;;;;;;;4991441;28;20233;-84
2023/02/27 03:14:52;;;;;;;5.00;2.67;;;;;;;;;;4988542;28;20224;-83
2023/02/27 03:17:42;;;;;;;4.83;2.67;;;;;;;;;;5003119;28;20229;-85
2023/02/27 03:20:10;;;;;;;3.33;2.77;;;;;;;;;;4990575;28;20223;-85
2023/02/27 03:22:38;;;;;;;4.40;3.13;;;;;;;;;;5000470;28;20348;-85
2023/02/27 03:25:08;;;;;;;4.20;2.70;;;;;;;;;;4987948;28;20247;-85
2023/02/27 03:27:51;;;;;;;4.37;3.07;;;;;;;;;;4997292;28;20235;-86
2023/02/27 03:30:32;;;;;;;6.23;2.83;;;;;;;;;;4985754;28;20217;-85
2023/02/27 03:33:01;;;;;;;4.83;3.40;;;;;;;;;;5001201;28;20244;-83
2023/02/27 03:35:40;;;;;;;4.27;3.37;;;;;;;;;;5007830;28;20220;-85
2023/02/27 03:38:34;;;;;;;3.07;2.60;;;;;;;;;;4999905;28;20246;-84
2023/02/27 03:41:21;;;;;;;3.03;2.73;;;;;;;;;;5000343;28;20227;-83
2023/02/27 03:44:02;;;;;;;3.17;2.90;;;;;;;;;;5014533;28;20216;-85
2023/02/27 03:46:27;;;;;;;3.27;2.97;;;;;;;;;;5001539;28;20220;-84
2023/02/27 03:48:53;;;;;;;7.77;3.50;;;;;;;;;;5004491;28;20232;-84
2023/02/27 03:51:20;;;;;;;3.70;3.00;;;;;;;;;;5001478;28;20224;-86
2023/02/27 03:53:54;;;;;;;4.50;2.50;;;;;;;;;;4981770;28;20217;-86
2023/02/27 03:56:24;;;;;;;3.87;2.93;;;;;;;;;;4998850;28;21183;-85
2023/02/27 03:58:50;;;;;;;3.40;3.10;;;;;;;;;;5003826;28;20225;-84
2023/02/27 04:01:16;;;;;;;3.57;2.80;;;;;;;;;;4991884;28;20223;-85
2023/02/27 04:03:50;;;;;;;4.00;3.03;;;;;;;;;;4999083;28;20223;-85
2023/02/27 04:09:20;;;;;;;2.97;2.40;;;;;;;;;;4996921;28;20662;-83
2023/02/27 04:11:52;;;;;;;3.73;2.37;;;;;;;;;;4997416;28;20325;-83
2023/02/27 04:14:46;;;;;;;4.97;2.53;;;;;;;;;;4999148;28;20224;-84
2023/02/27 04:17:31;;;;;;;3.13;2.70;;;;;;;;;;5013899;28;20225;-86
2023/02/27 04:20:12;;;;;;;4.87;2.40;;;;;;;;;;4970824;28;20596;-85
2023/02/27 04:23:03;;;;;;;2.53;2.27;;;;;;;;;;4999255;28;20604;-84
2023/02/27 04:25:40;;;;;;;2.60;2.40;;;;;;;;;;4995612;28;20232;-83
2023/02/27 04:28:31;;;;;;;4.27;2.63;;;;;;;;;;4980581;28;20457;-82
2023/02/27 04:31:21;;;;;;;7.07;2.93;;;;;;;;;;4994379;28;20226;-84
2023/02/27 04:33:53;;;;;;;2.83;2.50;;;;;;;;;;5013430;28;20702;-84
2023/02/27 04:36:41;;;;;;;3.13;2.37;;;;;;;;;;4979378;28;20237;-84
2023/02/27 04:39:10;;;;;;;3.17;2.23;;;;;;;;;;4994908;28;20297;-84
2023/02/27 04:41:51;;;;;;;2.33;2.13;;;;;;;;;;5018518;28;20775;-86
2023/02/27 04:44:20;;;;;;;3.63;2.20;;;;;;;;;;4999530;28;20239;-86
2023/02/27 04:46:45;;;;;;;3.63;2.40;;;;;;;;;;5004951;28;20228;-84
2023/02/27 04:49:18;;;;;;;6.87;2.90;;;;;;;;;;4984867;28;20229;-85
2023/02/27 04:52:23;;;;;;;4.50;2.70;;;;;;;;;;4986087;28;20236;-85
2023/02/27 04:54:55;;;;;;;4.20;2.53;;;;;;;;;;4978090;28;20251;-80
2023/02/27 04:57:26;;;;;;;4.70;2.43;;;;;;;;;;4996325;28;20340;-82
2023/02/27 04:59:54;;;;;;;4.97;3.00;;;;;;;;;;5011231;28;20705;-82
2023/02/27 05:02:23;;;;;;;3.70;2.80;;;;;;;;;;4995988;28;20221;-82
2023/02/27 05:04:50;;;;;;;4.77;3.20;;;;;;;;;;4994633;28;20212;-81
2023/02/27 05:07:19;;;;;;;3.90;3.10;;;;;;;;;;4994184;28;20233;-81
2023/02/27 05:09:54;;;;;;;3.40;3.10;;;;;;;;;;4993522;28;20820;-82
2023/02/27 05:12:42;;;;;;;5.57;3.10;;;;;;;;;;4996501;28;20283;-80
2023/02/27 05:15:17;;;;;;;3.57;2.97;;;;;;;;;;5010579;28;20315;-81
2023/02/27 05:17:59;;;;;;;5.53;3.43;;;;;;;;;;4995392;28;20271;-82
2023/02/27 05:20:29;;;;;;;5.53;3.80;;;;;;;;;;4997063;28;20220;-80
2023/02/27 05:22:59;;;;;;;5.80;3.23;;;;;;;;;;4997093;28;20713;-82
2023/02/27 05:25:38;;;;;;;3.87;3.50;;;;;;;;;;5016913;28;20299;-82
2023/02/27 05:28:34;;;;;;;6.63;3.23;;;;;;;;;;5004271;28;20228;-81
2023/02/27 05:31:13;;;;;;;6.47;3.40;;;;;;;;;;4993386;28;20220;-81
2023/02/27 05:33:47;;;;;;;3.50;3.20;;;;;;;;;;4998772;28;20303;-81
2023/02/27 05:36:30;;;;;;;5.37;3.77;;;;;;;;;;5011458;28;20693;-81
2023/02/27 05:38:58;;;;;;;5.20;3.70;;;;;;;;;;4996342;28;20260;-81
2023/02/27 05:41:32;;;;;;;7.67;3.63;;;;;;;;;;4994529;28;20244;-80
2023/02/27 05:44:24;;;;;;;4.77;3.27;;;;;;;;;;4984930;28;20227;-80
2023/02/27 05:47:01;;;;;;;4.40;3.37;;;;;;;;;;4976580;28;20233;-80
2023/02/27 05:49:40;;;;;;;3.67;3.20;;;;;;;;;;5003721;28;20224;-80
2023/02/27 05:52:10;;;;;;;7.37;3.50;;;;;;;;;;5015786;28;20256;-80
2023/02/27 05:54:46;;;;;;;4.00;3.60;;;;;;;;;;5002974;28;20224;-82
2023/02/27 05:57:15;;;;;;;4.87;4.17;;;;;;;;;;4994395;28;20696;-82
2023/02/27 05:59:49;;;;;;;3.60;3.30;;;;;;;;;;4996645;28;20231;-80
2023/02/27 06:02:15;;;;;;;6.03;3.67;;;;;;;;;;4987995;28;20639;-83
2023/02/27 06:04:40;;;;;;;3.50;3.07;;;;;;;;;;4988623;28;20240;-80
2023/02/27 06:07:29;;;;;;;3.53;2.87;;;;;;;;;;4985259;28;20225;-80
2023/02/27 06:10:15;;;;;;;3.30;3.00;;;;;;;;;;4971068;28;20363;-82
2023/02/27 06:12:45;;;;;;;3.70;3.07;;;;;;;;;;4981355;28;20236;-81
2023/02/27 06:15:18;;;;;;;3.50;3.20;;;;;;;;;;4952272;28;20315;-82
2023/02/27 06:18:04;;;;;;;3.47;3.13;;;;;;;;;;4973881;28;20267;-79
2023/02/27 06:20:35;;;;;;;4.03;3.70;;;;;;;;;;4971714;28;20233;-82
2023/02/27 06:23:11;;;;;;;4.90;3.70;;;;;;;;;;4967919;28;20236;-82
2023/02/27 06:25:42;;;;;;;4.73;3.53;;;;;;;;;;4969054;28;20678;-83
2023/02/27 06:28:13;;;;;;;6.40;3.80;;;;;;;;;;4969809;28;20550;-82
2023/02/27 06:30:39;;;;;;;6.17;3.90;;;;;;;;;;4985862;28;20233;-81
2023/02/27 06:33:08;;;;;;;5.20;3.50;;;;;;;;;;4998666;28;20614;-81
2023/02/27 06:35:34;;;;;;;10.97;4.00;;;;;;;;;;4984096;28;20299;-81
2023/02/27 06:38:05;;;;;;;6.10;3.80;;;;;;;;;;4990534;28;20232;-81
2023/02/27 06:40:50;;;;;;;6.10;4.10;;;;;;;;;;4972384;28;20414;-82
2023/02/27 06:43:39;;;;;;;;;;;;;;;;;;;;;
2023/02/27 06:46:15;;;;;;;10.00;5.70;;;;;;;;;;4971927;28;20229;-79
2023/02/27 06:48:41;;;;;;;6.77;6.17;;;;;;;;;;4998198;28;20230;-79
2023/02/27 06:51:26;;;;;;;8.50;7.10;;;;;;;;;;4984420;28;20332;-82
2023/02/27 06:54:16;;;;;;;7.23;5.93;;;;;;;;;;5003844;28;20681;-81
2023/02/27 06:57:18;;;;;;;7.57;5.90;;;;;;;;;;4999186;28;20247;-82
2023/02/27 06:59:47;;;;;;;6.47;5.03;;;;;;;;;;4994196;28;20698;-80
2023/02/27 07:02:32;;;;;;;6.10;4.90;;;;;;;;;;4981282;28;20307;-79
2023/02/27 07:04:57;;;;;;;7.37;5.40;;;;;;;;;;4996446;28;20676;-80
2023/02/27 07:07:24;;;;;;;6.50;4.33;;;;;;;;;;4962518;28;20228;-80
2023/02/27 07:09:50;;;;;;;5.90;4.87;;;;;;;;;;4994947;28;20603;-80
2023/02/27 07:12:15;;;;;;;5.33;4.67;;;;;;;;;;5010152;28;20231;-81
2023/02/27 07:14:41;;;;;;;6.00;4.17;;;;;;;;;;4991076;28;20218;-80
2023/02/27 07:17:12;;;;;;;6.40;4.47;;;;;;;;;;5006310;28;20228;-80
2023/02/27 07:19:40;;;;;;;5.77;5.17;;;;;;;;;;5006240;28;20226;-80
2023/02/27 07:22:08;;;;;;;8.40;4.70;;;;;;;;;;5007179;28;20243;-82
2023/02/27 07:24:36;;;;;;;8.40;5.10;;;;;;;;;;4979294;28;20221;-81
2023/02/27 07:27:05;;;;;;;5.27;4.77;;;;;;;;;;5007274;28;20307;-81
2023/02/27 07:29:36;;;;;;;9.20;5.30;;;;;;;;;;5009104;28;20205;-83
2023/02/27 07:32:02;;;;;;;5.73;4.73;;;;;;;;;;5012443;28;20244;-81
2023/02/27 07:34:29;;;;;;;5.33;4.83;;;;;;;;;;4998486;28;20220;-81
2023/02/27 07:36:57;;;;;;;5.67;5.10;;;;;;;;;;5000072;28;20255;-81
2023/02/27 07:39:23;;;;;;;5.50;5.00;;;;;;;;;;4991779;28;20236;-81
2023/02/27 07:41:51;;;;;;;5.60;5.10;;;;;;;;;;5009920;28;20233;-80
2023/02/27 07:44:20;;;;;;;5.60;5.07;;;;;;;;;;5010829;28;20229;-79
2023/02/27 07:46:51;;;;;;;7.07;5.63;;;;;;;;;;5026953;28;20276;-82
2023/02/27 07:49:21;;;;;;;6.20;5.63;;;;;;;;;;4982970;28;20259;-82
2023/02/27 07:51:49;;;;;;;7.97;5.47;;;;;;;;;;4985536;28;20252;-81
2023/02/27 07:54:17;;;;;;;6.80;5.67;;;;;;;;;;5007881;28;20217;-82
2023/02/27 07:56:42;;;;;;;6.60;5.93;;;;;;;;;;5011143;28;20231;-80
2023/02/27 07:59:16;;;;;;;7.10;6.13;;;;;;;;;;5005776;28;20225;-80
2023/02/27 08:01:42;;;;;;;7.03;6.33;;;;;;;;;;4993151;28;20216;-80
2023/02/27 08:04:11;;;;;;;8.03;5.97;;;;;;;;;;4996631;28;20220;-81
2023/02/27 08:06:46;;;;;;;7.20;6.50;;;;;;;;;;4993601;28;20209;-80
2023/02/27 08:09:11;;;;;;;7.20;6.50;;;;;;;;;;5006970;28;20233;-80
2023/02/27 08:11:43;;;;;;;9.13;6.60;;;;;;;;;;5009727;28;20240;-81
2023/02/27 08:14:11;;;;;;;7.60;5.83;;;;;;;;;;5024272;28;20705;-80
2023/02/27 08:16:43;;;;;;;6.23;5.63;;;;;;;;;;5006809;28;20232;-80
2023/02/27 08:19:17;;;;;;;8.80;6.43;;;;;;;;;;4996675;28;20289;-79
2023/02/27 08:21:45;;;;;;;6.17;5.57;;;;;;;;;;5010050;28;20359;-81
2023/02/27 08:24:13;;;;;;;8.27;6.23;;;;;;;;;;5004565;28;20225;-81
2023/02/27 08:26:42;;;;;;;12.20;6.67;;;;;;;;;;5015965;28;20217;-79
2023/02/27 08:29:11;;;;;;;8.67;6.87;;;;;;;;;;5005450;28;20338;-80
2023/02/27 08:31:36;;;;;;;7.33;6.07;;;;;;;;;;5017615;28;20267;-79
2023/02/27 08:34:08;;;;;;;14.60;6.37;;;;;;;;;;5019109;28;20234;-79
2023/02/27 08:36:40;;;;;;;6.93;6.20;;;;;;;;;;4996917;28;20240;-81
2023/02/27 08:39:08;;;;;;;11.03;9.93;;;;;;;;;;4989947;28;20331;-82
2023/02/27 08:41:44;;;;;;;7.50;6.80;;;;;;;;;;5009074;28;20217;-82
2023/02/27 08:44:12;;;;;;;6.33;5.40;;;;;;;;;;5000454;28;20303;-82
2023/02/27 08:46:41;;;;;;;7.83;6.00;;;;;;;;;;5020496;28;20732;-80
2023/02/27 08:49:11;;;;;;;8.03;5.77;;;;;;;;;;5006161;28;20239;-82
2023/02/27 08:51:38;;;;;;;5.33;4.83;;;;;;;;;;4988165;28;20216;-80
2023/02/27 08:54:04;;;;;;;7.30;5.90;;;;;;;;;;5013387;28;20255;-81
2023/02/27 08:56:30;;;;;;;9.07;5.53;;;;;;;;;;5000479;28;20840;-82
2023/02/27 08:58:58;;;;;;;7.83;5.87;;;;;;;;;;4995509;28;20235;-81
2023/02/27 09:01:33;;;;;;;11.00;5.20;;;;;;;;;;5011663;28;20713;-82
2023/02/27 09:04:02;;;;;;;9.77;5.50;;;;;;;;;;4994196;28;20217;-80
2023/02/27 09:06:30;;;;;;;5.73;4.70;;;;;;;;;;5003129;28;20216;-82
2023/02/27 09:08:56;;;;;;;9.87;5.80;;;;;;;;;;4995140;28;20216;-80
2023/02/27 09:11:24;;;;;;;8.63;5.00;;;;;;;;;;5011048;28;20238;-79
2023/02/27 09:13:52;;;;;;;7.00;4.87;;;;;;;;;;4997827;28;20362;-82
2023/02/27 09:16:19;;;;;;;5.53;4.13;;;;;;;;;;5006721;28;20974;-79
2023/02/27 09:18:44;;;;;;;8.67;4.80;;;;;;;;;;5008131;28;20610;-79
2023/02/27 09:21:11;;;;;;;5.60;4.33;;;;;;;;;;4978820;28;20228;-80
2023/02/27 09:23:36;;;;;;;8.20;4.87;;;;;;;;;;5011028;28;20243;-80
2023/02/27 09:26:02;;;;;;;5.97;4.40;;;;;;;;;;4996347;28;20287;-80
2023/02/27 09:28:30;;;;;;;6.50;3.90;;;;;;;;;;5014299;28;20231;-81
2023/02/27 09:31:06;;;;;;;9.00;4.13;;;;;;;;;;5013265;28;20220;-81
2023/02/27 09:33:33;;;;;;;5.23;2.77;;;;;;;;;;5005921;28;20431;-80
2023/02/27 09:35:58;;;;;;;5.47;3.07;;;;;;;;;;5022550;28;20231;-84
2023/02/27 09:38:28;;;;;;;4.67;2.63;;;;;;;;;;5016781;28;20223;-84
2023/02/27 09:41:00;;;;;;;7.00;2.60;;;;;;;;;;5013332;28;20215;-83
2023/02/27 09:43:46;;;;;;;4.00;2.30;;;;;;;;;;5001068;28;20228;-83
2023/02/27 09:46:17;;;;;;;4.33;2.50;;;;;;;;;;5004367;28;20239;-82
2023/02/27 09:48:45;;;;;;;3.47;2.17;;;;;;;;;;5013050;28;20666;-83
2023/02/27 09:51:14;;;;;;;5.33;2.80;;;;;;;;;;5037479;28;20243;-81
2023/02/27 09:53:53;;;;;;;6.73;2.83;;;;;;;;;;5000890;28;20907;-83
2023/02/27 09:56:25;;;;;;;9.03;2.63;;;;;;;;;;4979784;28;20224;-81
2023/02/27 09:58:59;;;;;;;3.23;2.20;;;;;;;;;;5031668;28;20224;-80
2023/02/27 10:01:29;;;;;;;3.43;2.10;;;;;;;;;;5014878;28;20223;-81
2023/02/27 10:04:17;;;;;;;5.20;2.53;;;;;;;;;;5003732;28;20212;-82
2023/02/27 10:07:04;;;;;;;4.57;2.37;;;;;;;;;;5018986;28;20242;-83
2023/02/27 10:09:33;;;;;;;3.77;2.47;;;;;;;;;;5021318;28;20283;-83
2023/02/27 10:12:25;;;;;;;4.47;2.20;;;;;;;;;;5020723;28;20224;-83
2023/02/27 10:14:52;;;;;;;5.03;2.37;;;;;;;;;;5004498;28;20228;-79
2023/02/27 10:17:30;;;;;;;3.40;2.03;;;;;;;;;;5019006;28;20235;-81
2023/02/27 10:19:59;;;;;;;4.07;2.23;;;;;;;;;;4991702;28;20263;-84
2023/02/27 10:22:28;;;;;;;4.20;2.60;;;;;;;;;;4998899;28;20219;-81
2023/02/27 10:25:04;;;;;;;2.93;2.07;;;;;;;;;;5019536;28;20226;-81
2023/02/27 10:27:32;;;;;;;5.07;2.10;;;;;;;;;;5019528;28;20243;-81
2023/02/27 10:30:16;;;;;;;4.77;2.43;;;;;;;;;;4992858;28;20216;-79
2023/02/27 10:32:41;;;;;;;2.63;2.00;;;;;;;;;;5006935;28;20236;-83
2023/02/27 10:35:29;;;;;;;2.70;2.00;;;;;;;;;;5017415;28;20274;-83
2023/02/27 10:38:02;;;;;;;2.57;1.53;;;;;;;;;;5016158;28;20231;-82
2023/02/27 10:40:28;;;;;;;2.57;1.90;;;;;;;;;;4984995;28;20224;-81
2023/02/27 10:43:01;;;;;;;3.77;1.67;;;;;;;;;;5026309;28;20235;-80
2023/02/27 10:45:29;;;;;;;2.10;1.87;;;;;;;;;;5022930;28;20227;-81
2023/02/27 10:48:02;;;;;;;7.60;2.10;;;;;;;;;;5024924;28;20231;-83
2023/02/27 10:50:34;;;;;;;5.60;1.97;;;;;;;;;;5014344;28;20254;-78
2023/02/27 10:53:06;;;;;;;5.00;1.53;;;;;;;;;;5032574;28;20247;-80
2023/02/27 10:55:37;;;;;;;3.30;1.60;;;;;;;;;;5034247;28;20220;-83
2023/02/27 10:58:07;;;;;;;1.60;1.43;;;;;;;;;;5026741;28;20232;-76
2023/02/27 11:00:46;;;;;;;5.07;1.50;;;;;;;;;;5015308;28;20228;-77
2023/02/27 11:03:27;;;;;;;4.27;2.20;;;;;;;;;;5015443;28;20219;-80
2023/02/27 11:06:29;;;;;;;2.13;1.20;;;;;;;;;;5006643;28;20223;-82
2023/02/27 11:09:32;;;;;;;1.97;1.17;;;;;;;;;;5016168;28;20691;-82
2023/02/27 11:12:23;;;;;;;1.47;1.17;;;;;;;;;;4962597;28;20226;-82
2023/02/27 11:15:24;;;;;;;2.13;1.40;;;;;;;;;;5024552;28;20220;-81
2023/02/27 11:17:50;;;;;;;3.10;1.60;;;;;;;;;;5023663;28;20228;-81
2023/02/27 11:20:36;;;;;;;2.13;1.20;;;;;;;;;;5012616;28;20274;-82
2023/02/27 11:23:25;;;;;;;1.57;1.10;;;;;;;;;;4999738;28;20305;-82
2023/02/27 11:25:56;;;;;;;2.43;1.03;;;;;;;;;;5033777;28;20637;-80
2023/02/27 11:28:29;;;;;;;1.70;1.07;;;;;;;;;;5012805;28;20228;-80
2023/02/27 11:30:56;;;;;;;2.13;1.10;;;;;;;;;;5004916;28;20235;-80
2023/02/27 11:33:40;;;;;;;3.03;1.10;;;;;;;;;;5003150;28;20235;-82
2023/02/27 11:36:06;;;;;;;1.20;1.10;;;;;;;;;;5009024;28;20224;-81
2023/02/27 11:38:33;;;;;;;3.17;1.20;;;;;;;;;;5003857;28;20219;-83
2023/02/27 11:41:05;;;;;;;2.53;0.93;;;;;;;;;;5021066;28;20561;-82
2023/02/27 11:43:47;;;;;;;2.35;1.20;;;;;;;;;;5025478;28;20421;-79
2023/02/27 11:46:22;;;;;;;1.03;0.90;;;;;;;;;;5026554;28;20308;-85
2023/02/27 11:49:10;;;;;;;1.43;1.10;;;;;;;;;;5011272;28;20232;-81
2023/02/27 11:51:45;;;;;;;2.77;1.00;;;;;;;;;;5025746;28;20228;-77
2023/02/27 11:54:17;;;;;;;1.47;1.07;;;;;;;;;;5037479;28;20281;-82
2023/02/27 11:57:08;;;;;;;1.17;0.73;;;;;;;;;;5005031;28;20235;-82
2023/02/27 11:59:52;;;;;;;3.03;1.10;;;;;;;;;;5010466;28;20224;-81
2023/02/27 12:03:10;;;;;;;1.53;1.00;;;;;;;;;;5007662;28;20236;-78
2023/02/27 12:05:50;;;;;;;3.27;1.10;;;;;;;;;;5006236;28;20224;-81
2023/02/27 12:08:36;;;;;;;1.03;0.80;;;;;;;;;;5007130;28;20319;-82
2023/02/27 12:11:14;;;;;;;1.47;0.73;;;;;;;;;;5040771;28;20619;-81
2023/02/27 12:13:55;;;;;;;1.27;0.90;;;;;;;;;;5011163;28;20699;-83
2023/02/27 12:16:31;;;;;;;3.00;0.77;;;;;;;;;;5011426;28;20275;-81
2023/02/27 12:19:19;;;;;;;1.23;0.70;;;;;;;;;;5002707;28;20235;-80
2023/02/27 12:21:56;;;;;;;1.93;1.27;;;;;;;;;;4991679;28;20222;-81
2023/02/27 12:24:41;;;;;;;1.50;0.93;;;;;;;;;;4985131;28;20220;-81
2023/02/27 12:27:28;;;;;;;1.60;1.10;;;;;;;;;;5042040;28;20235;-82
2023/02/27 12:30:01;;;;;;;1.90;1.20;;;;;;;;;;5025674;28;20287;-79
2023/02/27 12:32:41;;;;;;;0.90;0.83;;;;;;;;;;5013524;28;20243;-79
2023/02/27 12:35:23;;;;;;;2.03;1.00;;;;;;;;;;5011901;28;20288;-81
2023/02/27 12:38:02;;;;;;;1.13;0.80;;;;;;;;;;5002691;28;20244;-83
2023/02/27 12:40:55;;;;;;;1.03;0.80;;;;;;;;;;5010661;28;20228;-80
2023/02/27 12:43:49;;;;;;;1.63;0.83;;;;;;;;;;4995218;28;20334;-82
2023/02/27 12:46:55;;;;;;;2.60;1.03;;;;;;;;;;5000030;28;20232;-82
2023/02/27 12:49:43;;;;;;;1.60;0.90;;;;;;;;;;5024696;28;20212;-77
2023/02/27 12:52:21;;;;;;;3.33;1.30;;;;;;;;;;5023151;28;20231;-81
2023/02/27 12:54:56;;;;;;;1.60;1.00;;;;;;;;;;5011845;28;20203;-81
2023/02/27 12:57:28;;;;;;;1.50;1.10;;;;;;;;;;5048486;28;20259;-79
2023/02/27 13:00:19;;;;;;;2.43;1.23;;;;;;;;;;5034616;28;20246;-79
2023/02/27 13:02:57;;;;;;;2.40;1.10;;;;;;;;;;5017617;28;20248;-80
2023/02/27 13:05:40;;;;;;;1.93;0.93;;;;;;;;;;5008562;28;20234;-77
2023/02/27 13:08:37;;;;;;;2.07;1.00;;;;;;;;;;5024385;28;20251;-81
2023/02/27 13:11:24;;;;;;;1.17;0.90;;;;;;;;;;5043148;28;20226;-81
2023/02/27 13:13:53;;;;;;;1.63;0.97;;;;;;;;;;5008883;28;20240;-77
2023/02/27 13:16:27;;;;;;;1.03;0.80;;;;;;;;;;4996002;28;20220;-81
2023/02/27 13:19:03;;;;;;;0.90;0.70;;;;;;;;;;5024429;28;20248;-83
2023/02/27 13:21:50;;;;;;;1.43;0.87;;;;;;;;;;5029807;28;20220;-80
2023/02/27 13:24:28;;;;;;;2.10;0.90;;;;;;;;;;5001957;28;20285;-82
2023/02/27 13:27:17;;;;;;;0.67;0.67;;;;;;;;;;5004523;28;20228;-82
2023/02/27 13:29:50;;;;;;;0.77;0.77;;;;;;;;;;5043378;28;20224;-81
2023/02/27 13:32:22;;;;;;;1.33;0.77;;;;;;;;;;4972715;28;20886;-82
2023/02/27 13:34:58;;;;;;;1.23;1.10;;;;;;;;;;5039987;28;20235;-82
2023/02/27 13:37:49;;;;;;;1.10;0.80;;;;;;;;;;5007475;28;20224;-81
2023/02/27 13:40:39;;;;;;;1.53;1.03;;;;;;;;;;5022514;28;20224;-82
2023/02/27 13:43:05;;;;;;;1.30;0.90;;;;;;;;;;5016326;28;20232;-80
2023/02/27 13:45:56;;;;;;;1.53;1.00;;;;;;;;;;5026405;28;20233;-79
2023/02/27 13:49:01;;;;;;;1.90;0.90;;;;;;;;;;4999863;28;20224;-84
2023/02/27 13:51:33;;;;;;;1.70;1.10;;;;;;;;;;5024654;28;20330;-82
2023/02/27 13:54:15;;;;;;;0.77;0.67;;;;;;;;;;5036836;28;20255;-81
2023/02/27 13:57:11;;;;;;;1.00;0.90;;;;;;;;;;5014129;28;20227;-80
2023/02/27 13:59:39;;;;;;;2.00;1.07;;;;;;;;;;5025398;28;20248;-80
2023/02/27 14:02:10;;;;;;;0.70;0.70;;;;;;;;;;4981307;28;20216;-83
2023/02/27 14:04:44;;;;;;;15.57;1.20;;;;;;;;;;5020798;28;20228;-85
2023/02/27 14:07:20;;;;;;;4.57;1.10;;;;;;;;;;5018876;28;20232;-80
2023/02/27 14:09:51;;;;;;;1.53;1.10;;;;;;;;;;5041138;28;20250;-80
2023/02/27 14:12:38;;;;;;;1.23;0.90;;;;;;;;;;5008718;28;20238;-81
2023/02/27 14:15:23;;;;;;;1.13;0.87;;;;;;;;;;5000893;28;20224;-81
2023/02/27 14:18:06;;;;;;;0.87;0.80;;;;;;;;;;5014424;28;20701;-83
2023/02/27 14:20:38;;;;;;;2.30;0.80;;;;;;;;;;5011644;28;20224;-80
2023/02/27 14:23:24;;;;;;;1.33;0.70;;;;;;;;;;5024232;28;20222;-83
2023/02/27 14:25:53;;;;;;;1.70;1.30;;;;;;;;;;5040556;28;20224;-82
2023/02/27 14:28:25;;;;;;;2.50;0.90;;;;;;;;;;5015793;28;20262;-81
2023/02/27 14:30:56;;;;;;;2.00;0.93;;;;;;;;;;5042407;28;20224;-80
2023/02/27 14:33:28;;;;;;;1.67;0.60;;;;;;;;;;5003691;28;20235;-80
2023/02/27 14:36:07;;;;;;;0.97;0.83;;;;;;;;;;5041065;28;20242;-79
2023/02/27 14:38:39;;;;;;;1.20;0.80;;;;;;;;;;5004661;28;20737;-79
2023/02/27 14:41:28;;;;;;;1.30;0.70;;;;;;;;;;5017755;28;20303;-80
2023/02/27 14:43:59;;;;;;;2.80;0.83;;;;;;;;;;5042756;28;20211;-80
2023/02/27 14:46:27;;;;;;;0.97;0.70;;;;;;;;;;4990868;28;20239;-79
2023/02/27 14:48:55;;;;;;;0.70;0.70;;;;;;;;;;5030264;28;20220;-81
2023/02/27 14:51:23;;;;;;;1.10;0.80;;;;;;;;;;5043486;28;20296;-78
2023/02/27 14:54:08;;;;;;;1.27;0.63;;;;;;;;;;5025049;28;20228;-79
2023/02/27 14:56:34;;;;;;;2.70;1.00;;;;;;;;;;5032695;28;20203;-80
2023/02/27 14:59:04;;;;;;;2.03;0.90;;;;;;;;;;5008433;28;20238;-80
2023/02/27 15:01:34;;;;;;;2.53;0.70;;;;;;;;;;5017435;28;20220;-79
2023/02/27 15:03:59;;;;;;;1.03;0.80;;;;;;;;;;5003611;28;20227;-82
2023/02/27 15:07:05;;;;;;;0.87;0.87;;;;;;;;;;5024779;28;20235;-78
2023/02/27 15:09:42;;;;;;;1.03;0.93;;;;;;;;;;5037615;28;20247;-79
2023/02/27 15:12:08;;;;;;;1.23;0.73;;;;;;;;;;5010637;28;20204;-82
2023/02/27 15:14:37;;;;;;;2.13;1.20;;;;;;;;;;5038922;28;20216;-84
2023/02/27 15:17:12;;;;;;;2.17;0.90;;;;;;;;;;5021011;28;20222;-79
2023/02/27 15:19:45;;;;;;;1.33;0.60;;;;;;;;;;5014222;28;20220;-80
2023/02/27 15:22:26;;;;;;;1.50;1.10;;;;;;;;;;5012813;28;20228;-78
2023/02/27 15:24:51;;;;;;;0.60;0.60;;;;;;;;;;5026436;28;20685;-81
2023/02/27 15:27:24;;;;;;;1.90;0.77;;;;;;;;;;5003662;28;20249;-81
2023/02/27 15:29:56;;;;;;;1.33;1.00;;;;;;;;;;4995009;28;20238;-81
2023/02/27 15:32:35;;;;;;;0.67;0.67;;;;;;;;;;5020637;28;20242;-82